Time;durP1;ratioP1;P1;durP2;ratioP2;P2;SDS_P1;SDS_P2;PMS_P1;PMS_P2;Temp;Humidity;BMP_temperature;BMP_pressure;BME280_temperature;BME280_humidity;BME280_pressure;Samples;Min_cycle;Max_cycle;Signal;HPM_P1;HPM_P2
2022/07/19 00:00:34;;;;;;;2.90;1.65;;;;;;;;;;5075930;27;92364;-63
2022/07/19 00:03:01;;;;;;;1.77;1.60;;;;;;;;;;5075596;27;94432;-63
2022/07/19 00:05:27;;;;;;;1.98;1.77;;;;;;;;;;5084117;27;92518;-63
2022/07/19 00:07:54;;;;;;;2.13;1.80;;;;;;;;;;5099087;27;92411;-63
2022/07/19 00:10:20;;;;;;;2.55;1.90;;;;;;;;;;5096367;27;93502;-62
2022/07/19 00:12:47;;;;;;;3.13;1.90;;;;;;;;;;5096647;27;92057;-63
2022/07/19 00:15:14;;;;;;;1.88;1.77;;;;;;;;;;5093442;27;92407;-63
2022/07/19 00:17:42;;;;;;;2.13;1.90;;;;;;;;;;5075156;27;93527;-63
2022/07/19 00:20:09;;;;;;;2.45;1.70;;;;;;;;;;5074177;27;94817;-63
2022/07/19 00:22:35;;;;;;;2.03;1.83;;;;;;;;;;5074891;27;95917;-63
2022/07/19 00:25:02;;;;;;;1.88;1.77;;;;;;;;;;5075269;27;93602;-62
2022/07/19 00:27:29;;;;;;;1.65;1.50;;;;;;;;;;5075296;27;92463;-63
2022/07/19 00:29:55;;;;;;;3.88;1.90;;;;;;;;;;5078050;27;92940;-63
2022/07/19 00:32:22;;;;;;;3.55;2.00;;;;;;;;;;5075326;27;92458;-62
2022/07/19 00:34:48;;;;;;;3.75;1.70;;;;;;;;;;5075873;27;94178;-63
2022/07/19 00:37:15;;;;;;;2.40;2.20;;;;;;;;;;5074892;27;92850;-63
2022/07/19 00:39:41;;;;;;;1.80;1.70;;;;;;;;;;5075315;27;92538;-63
2022/07/19 00:42:07;;;;;;;2.72;2.00;;;;;;;;;;5078930;27;93146;-63
2022/07/19 00:44:34;;;;;;;2.10;1.80;;;;;;;;;;5094507;27;96739;-63
2022/07/19 00:47:00;;;;;;;2.13;1.80;;;;;;;;;;5079253;27;92458;-63
2022/07/19 00:49:26;;;;;;;2.20;2.00;;;;;;;;;;5082197;27;93119;-63
2022/07/19 00:51:53;;;;;;;1.83;1.73;;;;;;;;;;5078744;27;92386;-63
2022/07/19 00:54:21;;;;;;;2.25;1.92;;;;;;;;;;5078771;27;93193;-63
2022/07/19 00:56:47;;;;;;;4.10;2.20;;;;;;;;;;5078419;27;93465;-63
2022/07/19 00:59:14;;;;;;;2.33;2.13;;;;;;;;;;5078572;27;92443;-63
2022/07/19 01:01:40;;;;;;;1.95;1.85;;;;;;;;;;5078890;27;93377;-62
2022/07/19 01:04:07;;;;;;;2.15;1.92;;;;;;;;;;5077812;27;93486;-63
2022/07/19 01:06:34;;;;;;;3.03;2.10;;;;;;;;;;5078654;27;92397;-63
2022/07/19 01:09:01;;;;;;;2.20;2.00;;;;;;;;;;5077190;27;94841;-63
2022/07/19 01:11:27;;;;;;;2.78;1.90;;;;;;;;;;5081576;27;92592;-63
2022/07/19 01:13:53;;;;;;;2.92;2.20;;;;;;;;;;5078783;27;94242;-63
2022/07/19 01:16:20;;;;;;;2.88;1.98;;;;;;;;;;5078797;27;94508;-63
2022/07/19 01:18:46;;;;;;;3.90;2.58;;;;;;;;;;5078218;27;92751;-63
2022/07/19 01:21:20;;;;;;;3.15;2.10;;;;;;;;;;5078249;27;93120;-63
2022/07/19 01:23:46;;;;;;;2.88;2.08;;;;;;;;;;5078721;27;94675;-63
2022/07/19 01:26:13;;;;;;;2.88;2.28;;;;;;;;;;5078815;27;91683;-63
2022/07/19 01:28:39;;;;;;;2.17;1.98;;;;;;;;;;5078255;27;92577;-63
2022/07/19 01:31:05;;;;;;;2.88;1.95;;;;;;;;;;5078348;27;95090;-63
2022/07/19 01:33:37;;;;;;;2.38;1.92;;;;;;;;;;5079708;27;94881;-63
2022/07/19 01:36:03;;;;;;;3.40;1.77;;;;;;;;;;5077500;27;93483;-63
2022/07/19 01:38:29;;;;;;;2.03;1.92;;;;;;;;;;5077717;27;92368;-63
2022/07/19 01:40:57;;;;;;;4.03;2.20;;;;;;;;;;5078457;27;93193;-63
2022/07/19 01:43:23;;;;;;;2.35;2.15;;;;;;;;;;5078172;27;92384;-63
2022/07/19 01:45:50;;;;;;;3.03;2.30;;;;;;;;;;5077716;27;92367;-63
2022/07/19 01:48:16;;;;;;;2.95;2.25;;;;;;;;;;5077797;27;93215;-63
2022/07/19 01:50:43;;;;;;;2.33;2.13;;;;;;;;;;5078331;27;93098;-63
2022/07/19 01:53:09;;;;;;;2.05;1.90;;;;;;;;;;5077692;27;92409;-62
2022/07/19 01:55:35;;;;;;;2.40;2.20;;;;;;;;;;5080561;27;93205;-63
2022/07/19 01:58:02;;;;;;;2.67;2.33;;;;;;;;;;5075383;27;94848;-63
2022/07/19 02:00:28;;;;;;;2.45;2.25;;;;;;;;;;5077912;27;96700;-63
2022/07/19 02:02:54;;;;;;;4.28;2.15;;;;;;;;;;5077157;27;93569;-64
2022/07/19 02:05:21;;;;;;;2.30;2.10;;;;;;;;;;5077923;27;92442;-63
2022/07/19 02:07:48;;;;;;;2.33;2.15;;;;;;;;;;5077634;27;93406;-63
2022/07/19 02:10:14;;;;;;;2.22;2.10;;;;;;;;;;5077874;27;94441;-63
2022/07/19 02:12:41;;;;;;;3.13;2.47;;;;;;;;;;5077704;27;92400;-63
2022/07/19 02:15:07;;;;;;;4.07;2.30;;;;;;;;;;5060006;27;93592;-63
2022/07/19 02:17:34;;;;;;;3.35;2.05;;;;;;;;;;5080287;27;93419;-63
2022/07/19 02:20:00;;;;;;;3.60;2.20;;;;;;;;;;5077448;27;93216;-63
2022/07/19 02:22:27;;;;;;;2.72;2.10;;;;;;;;;;5075491;27;96029;-64
2022/07/19 02:24:53;;;;;;;4.05;2.53;;;;;;;;;;5077164;27;92486;-63
2022/07/19 02:27:19;;;;;;;2.88;2.10;;;;;;;;;;5077873;27;94391;-63
2022/07/19 02:29:46;;;;;;;2.63;2.35;;;;;;;;;;5076564;27;93816;-64
2022/07/19 02:32:12;;;;;;;3.70;2.70;;;;;;;;;;5077400;27;92441;-63
2022/07/19 02:34:39;;;;;;;2.40;2.20;;;;;;;;;;5077079;27;92710;-63
2022/07/19 02:37:05;;;;;;;5.65;2.25;;;;;;;;;;5076522;27;92764;-63
2022/07/19 02:39:31;;;;;;;4.18;2.22;;;;;;;;;;5080876;27;91607;-63
2022/07/19 02:41:58;;;;;;;2.60;2.20;;;;;;;;;;5076749;27;93528;-63
2022/07/19 02:44:24;;;;;;;2.20;2.10;;;;;;;;;;5076627;27;92531;-63
2022/07/19 02:46:51;;;;;;;3.17;2.65;;;;;;;;;;5075551;27;94758;-63
2022/07/19 02:49:17;;;;;;;3.60;2.20;;;;;;;;;;5076851;27;92419;-63
2022/07/19 02:51:44;;;;;;;3.92;2.40;;;;;;;;;;5077135;27;92451;-63
2022/07/19 02:54:10;;;;;;;3.40;2.33;;;;;;;;;;5076618;27;92676;-63
2022/07/19 02:56:36;;;;;;;2.45;2.25;;;;;;;;;;5077068;27;94518;-64
2022/07/19 02:59:06;;;;;;;4.40;2.03;;;;;;;;;;5079758;27;92444;-63
2022/07/19 03:01:32;;;;;;;2.45;2.25;;;;;;;;;;5076674;27;93459;-63
2022/07/19 03:03:59;;;;;;;2.75;2.20;;;;;;;;;;5076841;27;91717;-63
2022/07/19 03:06:26;;;;;;;3.50;2.35;;;;;;;;;;5077180;27;93677;-63
2022/07/19 03:08:52;;;;;;;2.47;2.28;;;;;;;;;;5076011;27;94495;-62
2022/07/19 03:11:19;;;;;;;2.30;2.00;;;;;;;;;;5075012;27;94810;-63
2022/07/19 03:13:45;;;;;;;2.38;2.17;;;;;;;;;;5076127;27;95691;-63
2022/07/19 03:16:11;;;;;;;2.25;2.05;;;;;;;;;;5077174;27;94746;-63
2022/07/19 03:18:38;;;;;;;2.60;2.40;;;;;;;;;;5076376;27;92460;-63
2022/07/19 03:21:04;;;;;;;2.20;2.00;;;;;;;;;;5079771;27;94241;-63
2022/07/19 03:23:32;;;;;;;3.28;2.00;;;;;;;;;;5076400;27;92439;-63
2022/07/19 03:25:58;;;;;;;2.67;2.28;;;;;;;;;;5076661;27;94522;-63
2022/07/19 03:28:24;;;;;;;3.22;2.17;;;;;;;;;;5076690;27;92751;-63
2022/07/19 03:30:51;;;;;;;3.58;2.05;;;;;;;;;;5076056;27;92373;-63
2022/07/19 03:33:17;;;;;;;2.42;2.17;;;;;;;;;;5076240;27;93365;-63
2022/07/19 03:35:44;;;;;;;2.40;2.20;;;;;;;;;;5074169;27;96866;-63
2022/07/19 03:38:11;;;;;;;2.58;2.20;;;;;;;;;;5076055;27;92872;-63
2022/07/19 03:40:38;;;;;;;3.40;2.17;;;;;;;;;;5076365;27;94523;-63
2022/07/19 03:43:05;;;;;;;2.90;2.55;;;;;;;;;;5078748;27;93519;-63
2022/07/19 03:45:32;;;;;;;3.28;2.35;;;;;;;;;;5076364;27;93152;-63
2022/07/19 03:47:58;;;;;;;2.40;2.20;;;;;;;;;;5076082;27;93334;-63
2022/07/19 03:50:24;;;;;;;2.95;2.30;;;;;;;;;;5076426;27;92382;-63
2022/07/19 03:52:51;;;;;;;2.80;2.35;;;;;;;;;;5076377;27;93371;-64
2022/07/19 03:55:17;;;;;;;2.30;2.05;;;;;;;;;;5075914;27;92516;-63
2022/07/19 03:57:43;;;;;;;2.42;2.20;;;;;;;;;;5075567;27;92402;-63
2022/07/19 04:00:10;;;;;;;3.28;2.60;;;;;;;;;;5074244;27;94946;-63
2022/07/19 04:02:36;;;;;;;2.97;2.03;;;;;;;;;;5075604;27;93738;-63
2022/07/19 04:05:03;;;;;;;3.92;2.38;;;;;;;;;;5079310;27;92420;-63
2022/07/19 04:07:29;;;;;;;3.22;2.30;;;;;;;;;;5075338;27;93281;-63
2022/07/19 04:09:55;;;;;;;5.32;2.40;;;;;;;;;;5076146;27;92410;-63
2022/07/19 04:12:22;;;;;;;4.60;2.20;;;;;;;;;;5075972;27;93191;-63
2022/07/19 04:14:48;;;;;;;3.20;2.38;;;;;;;;;;5075453;27;93426;-63
2022/07/19 04:17:14;;;;;;;2.75;2.20;;;;;;;;;;5076169;27;91658;-63
2022/07/19 04:19:41;;;;;;;2.40;2.20;;;;;;;;;;5075814;27;94105;-62
2022/07/19 04:22:07;;;;;;;2.67;2.47;;;;;;;;;;5075194;27;93073;-63
2022/07/19 04:24:33;;;;;;;5.18;2.03;;;;;;;;;;5073724;27;94842;-63
2022/07/19 04:27:00;;;;;;;2.55;2.35;;;;;;;;;;5078348;27;95488;-63
2022/07/19 04:29:26;;;;;;;2.50;2.30;;;;;;;;;;5075476;27;92353;-63
2022/07/19 04:31:53;;;;;;;2.50;2.30;;;;;;;;;;5075324;27;93540;-62
2022/07/19 04:34:19;;;;;;;2.53;2.33;;;;;;;;;;5057108;27;93744;-63
2022/07/19 04:36:45;;;;;;;2.78;2.53;;;;;;;;;;5056774;27;92363;-62
2022/07/19 04:39:12;;;;;;;2.60;2.40;;;;;;;;;;5075178;27;93584;-63
2022/07/19 04:41:38;;;;;;;2.35;2.08;;;;;;;;;;5057768;27;92558;-63
2022/07/19 04:44:04;;;;;;;2.75;2.38;;;;;;;;;;5075237;27;92513;-63
2022/07/19 04:46:31;;;;;;;2.88;2.33;;;;;;;;;;5078182;27;93271;-63
2022/07/19 04:48:57;;;;;;;2.20;2.00;;;;;;;;;;5073730;27;94849;-63
2022/07/19 04:51:23;;;;;;;2.70;2.50;;;;;;;;;;5074585;27;95559;-63
2022/07/19 04:53:50;;;;;;;2.10;2.00;;;;;;;;;;5056790;27;92484;-62
2022/07/19 04:56:16;;;;;;;2.28;2.08;;;;;;;;;;5074940;27;92412;-63
2022/07/19 04:58:42;;;;;;;3.67;2.35;;;;;;;;;;5075117;27;93168;-62
2022/07/19 05:01:09;;;;;;;2.95;2.47;;;;;;;;;;5074745;27;92397;-63
2022/07/19 05:03:35;;;;;;;2.53;2.33;;;;;;;;;;5074761;27;92507;-63
2022/07/19 05:06:01;;;;;;;2.75;2.55;;;;;;;;;;5075736;27;94627;-63
2022/07/19 05:08:28;;;;;;;2.60;2.40;;;;;;;;;;5077941;27;93557;-63
2022/07/19 05:10:54;;;;;;;2.60;2.40;;;;;;;;;;5075288;27;94546;-63
2022/07/19 05:13:20;;;;;;;2.58;2.38;;;;;;;;;;5072940;27;95920;-63
2022/07/19 05:15:47;;;;;;;2.40;2.17;;;;;;;;;;5075079;27;93129;-63
2022/07/19 05:18:13;;;;;;;2.78;2.15;;;;;;;;;;5075134;27;93696;-62
2022/07/19 05:20:39;;;;;;;4.50;2.50;;;;;;;;;;5074439;27;93676;-63
2022/07/19 05:23:07;;;;;;;4.72;2.50;;;;;;;;;;5075107;27;92448;-63
2022/07/19 05:25:33;;;;;;;2.45;2.25;;;;;;;;;;5074743;27;93626;-63
2022/07/19 05:28:00;;;;;;;2.92;2.30;;;;;;;;;;5074258;27;93608;-63
2022/07/19 05:30:26;;;;;;;3.72;2.40;;;;;;;;;;5078244;27;91810;-63
2022/07/19 05:32:52;;;;;;;4.05;2.70;;;;;;;;;;5075594;27;93785;-63
2022/07/19 05:35:19;;;;;;;3.15;2.35;;;;;;;;;;5077603;27;92483;-63
2022/07/19 05:37:45;;;;;;;2.38;2.17;;;;;;;;;;5076525;27;94765;-63
2022/07/19 05:40:11;;;;;;;2.22;2.13;;;;;;;;;;5078399;27;94838;-63
2022/07/19 05:42:38;;;;;;;2.40;2.20;;;;;;;;;;5077989;27;92472;-63
2022/07/19 05:45:04;;;;;;;2.30;2.10;;;;;;;;;;5078088;27;93188;-62
2022/07/19 05:47:31;;;;;;;2.50;2.25;;;;;;;;;;5077776;27;94599;-63
2022/07/19 05:49:59;;;;;;;3.97;2.17;;;;;;;;;;5078009;27;92484;-63
2022/07/19 05:52:26;;;;;;;2.92;2.20;;;;;;;;;;5080859;27;93240;-63
2022/07/19 05:54:58;;;;;;;2.55;2.35;;;;;;;;;;5078267;27;91758;-63
2022/07/19 05:57:24;;;;;;;3.08;2.38;;;;;;;;;;5060110;27;93475;-63
2022/07/19 05:59:51;;;;;;;2.42;2.10;;;;;;;;;;5077471;27;92519;-63
2022/07/19 06:02:17;;;;;;;3.45;2.10;;;;;;;;;;5075832;27;94941;-63
2022/07/19 06:04:43;;;;;;;3.90;2.33;;;;;;;;;;5077807;27;96611;-63
2022/07/19 06:07:10;;;;;;;4.63;2.40;;;;;;;;;;5059307;27;92450;-63
2022/07/19 06:09:36;;;;;;;2.72;2.17;;;;;;;;;;5078322;27;92552;-63
2022/07/19 06:12:02;;;;;;;2.72;2.50;;;;;;;;;;5078189;27;94079;-62
2022/07/19 06:14:29;;;;;;;2.97;2.47;;;;;;;;;;5080557;27;93515;-63
2022/07/19 06:16:55;;;;;;;2.40;2.03;;;;;;;;;;5077677;27;93091;-62
2022/07/19 06:19:22;;;;;;;2.97;2.60;;;;;;;;;;5078333;27;93760;-63
2022/07/19 06:21:48;;;;;;;4.22;2.75;;;;;;;;;;5077383;27;92582;-62
2022/07/19 06:24:14;;;;;;;4.57;2.33;;;;;;;;;;5077856;27;94316;-63
2022/07/19 06:26:41;;;;;;;3.58;2.60;;;;;;;;;;5075508;27;96041;-63
2022/07/19 06:29:07;;;;;;;3.75;2.35;;;;;;;;;;5077139;27;92460;-63
2022/07/19 06:31:33;;;;;;;2.40;2.20;;;;;;;;;;5077546;27;94491;-62
2022/07/19 06:34:00;;;;;;;3.70;2.78;;;;;;;;;;5077073;27;93487;-63
2022/07/19 06:36:27;;;;;;;2.50;2.30;;;;;;;;;;5079940;27;92403;-63
2022/07/19 06:38:53;;;;;;;2.55;2.22;;;;;;;;;;5076941;27;93771;-63
2022/07/19 06:41:19;;;;;;;2.53;2.33;;;;;;;;;;5076808;27;92403;-63
2022/07/19 06:43:49;;;;;;;3.17;2.30;;;;;;;;;;5077273;27;93457;-62
2022/07/19 06:46:15;;;;;;;2.90;2.47;;;;;;;;;;5076816;27;93471;-63
2022/07/19 06:48:42;;;;;;;2.75;2.40;;;;;;;;;;5077223;27;92545;-63
2022/07/19 06:51:08;;;;;;;3.58;2.28;;;;;;;;;;5075413;27;95079;-63
2022/07/19 06:53:35;;;;;;;2.47;2.28;;;;;;;;;;5076814;27;93692;-63
2022/07/19 06:56:02;;;;;;;2.13;1.92;;;;;;;;;;5079877;27;92286;-63
2022/07/19 06:58:29;;;;;;;2.70;2.50;;;;;;;;;;5076446;27;93755;-63
2022/07/19 07:00:56;;;;;;;2.47;2.28;;;;;;;;;;5058648;27;92428;-63
2022/07/19 07:03:22;;;;;;;2.70;2.40;;;;;;;;;;5077134;27;94756;-63
2022/07/19 07:05:49;;;;;;;2.55;2.35;;;;;;;;;;5076281;27;93520;-63
2022/07/19 07:08:15;;;;;;;4.22;2.20;;;;;;;;;;5077938;27;92271;-63
2022/07/19 07:10:41;;;;;;;5.30;2.47;;;;;;;;;;5076585;27;92512;-64
2022/07/19 07:13:08;;;;;;;2.60;2.40;;;;;;;;;;5076235;27;93493;-63
2022/07/19 07:15:34;;;;;;;2.55;2.30;;;;;;;;;;5075815;27;94880;-63
2022/07/19 07:18:00;;;;;;;2.42;2.22;;;;;;;;;;5079658;27;96941;-63
2022/07/19 07:20:27;;;;;;;2.67;2.45;;;;;;;;;;5076345;27;92472;-63
2022/07/19 07:22:53;;;;;;;2.70;2.30;;;;;;;;;;5076293;27;93173;-63
2022/07/19 07:25:19;;;;;;;2.85;2.38;;;;;;;;;;5076267;27;93505;-62
2022/07/19 07:27:45;;;;;;;2.28;2.05;;;;;;;;;;5076620;27;94167;-63
2022/07/19 07:30:12;;;;;;;2.45;2.25;;;;;;;;;;5076855;27;94042;-62
2022/07/19 07:32:38;;;;;;;3.78;2.35;;;;;;;;;;5076467;27;92968;-62
2022/07/19 07:35:05;;;;;;;2.08;1.88;;;;;;;;;;5076043;27;92457;-63
2022/07/19 07:37:31;;;;;;;4.25;2.40;;;;;;;;;;5076685;27;93440;-63
2022/07/19 07:39:57;;;;;;;2.35;2.22;;;;;;;;;;5077608;27;95846;-63
2022/07/19 07:42:24;;;;;;;4.75;2.22;;;;;;;;;;5076229;27;96586;-63
2022/07/19 07:44:52;;;;;;;2.58;2.17;;;;;;;;;;5076186;27;92541;-62
2022/07/19 07:47:19;;;;;;;6.10;1.95;;;;;;;;;;5057959;27;92422;-64
2022/07/19 07:49:45;;;;;;;2.55;2.33;;;;;;;;;;5076138;27;93327;-63
2022/07/19 07:52:12;;;;;;;3.35;2.33;;;;;;;;;;5075949;27;93699;-62
2022/07/19 07:54:38;;;;;;;2.33;2.08;;;;;;;;;;5075426;27;92502;-63
2022/07/19 07:57:25;;;;;;;2.95;1.90;;;;;;;;;;5076672;27;93142;-63
2022/07/19 07:59:51;;;;;;;2.53;2.30;;;;;;;;;;5076156;27;94827;-63
2022/07/19 08:02:17;;;;;;;2.58;2.33;;;;;;;;;;5079581;27;92423;-63
2022/07/19 08:04:44;;;;;;;3.00;2.42;;;;;;;;;;5073992;27;95811;-62
2022/07/19 08:07:10;;;;;;;2.42;2.10;;;;;;;;;;5075186;27;92498;-63
2022/07/19 08:09:36;;;;;;;2.15;1.98;;;;;;;;;;5076423;27;94191;-62
2022/07/19 08:12:03;;;;;;;2.25;2.00;;;;;;;;;;5075418;27;93679;-62
2022/07/19 08:14:29;;;;;;;2.30;2.10;;;;;;;;;;5075626;27;92565;-64
2022/07/19 08:16:55;;;;;;;1.75;1.65;;;;;;;;;;5076232;27;93948;-63
2022/07/19 08:19:22;;;;;;;2.35;1.98;;;;;;;;;;5075355;27;93476;-62
2022/07/19 08:21:48;;;;;;;2.17;1.98;;;;;;;;;;5076237;27;91632;-63
2022/07/19 08:24:15;;;;;;;2.05;1.85;;;;;;;;;;5078502;27;92453;-63
2022/07/19 08:26:41;;;;;;;3.60;2.20;;;;;;;;;;5075294;27;92415;-63
2022/07/19 08:29:07;;;;;;;2.15;2.03;;;;;;;;;;5074076;27;94836;-63
2022/07/19 08:31:34;;;;;;;2.05;1.85;;;;;;;;;;5057712;27;93445;-63
2022/07/19 08:34:00;;;;;;;2.85;2.13;;;;;;;;;;5075385;27;92462;-63
2022/07/19 08:36:27;;;;;;;2.10;2.00;;;;;;;;;;5074856;27;92414;-64
2022/07/19 08:38:53;;;;;;;2.75;2.20;;;;;;;;;;5075644;27;94622;-63
2022/07/19 08:41:20;;;;;;;2.13;1.85;;;;;;;;;;5075290;27;92373;-63
2022/07/19 08:43:48;;;;;;;2.28;2.08;;;;;;;;;;5075055;27;93328;-63
2022/07/19 08:46:14;;;;;;;2.28;1.88;;;;;;;;;;5078915;27;92729;-62
2022/07/19 08:48:41;;;;;;;2.60;2.05;;;;;;;;;;5075184;27;92449;-63
2022/07/19 08:51:16;;;;;;;2.50;1.95;;;;;;;;;;5075471;27;93276;-63
2022/07/19 08:53:43;;;;;;;1.83;1.63;;;;;;;;;;5073387;27;94772;-64
2022/07/19 08:58:55;;;;;;;3.05;2.10;;;;;;;;;;5074832;27;93511;-62
2022/07/19 09:01:22;;;;;;;2.75;2.28;;;;;;;;;;5074811;27;92980;-63
2022/07/19 09:04:03;;;;;;;1.70;1.60;;;;;;;;;;5056829;27;93143;-63
2022/07/19 09:06:43;;;;;;;2.38;2.10;;;;;;;;;;5077936;27;92357;-62
2022/07/19 09:09:10;;;;;;;2.80;2.00;;;;;;;;;;5078116;27;93005;-63
2022/07/19 09:11:38;;;;;;;1.80;1.70;;;;;;;;;;5078530;27;92747;-63
2022/07/19 09:14:06;;;;;;;2.45;2.25;;;;;;;;;;5078217;27;92397;-63
2022/07/19 09:16:52;;;;;;;1.80;1.70;;;;;;;;;;5078857;27;93120;-63
2022/07/19 09:19:19;;;;;;;2.35;2.08;;;;;;;;;;5076349;27;95854;-62
2022/07/19 09:21:52;;;;;;;2.78;1.70;;;;;;;;;;5078402;27;92382;-63
2022/07/19 09:24:20;;;;;;;1.92;1.83;;;;;;;;;;5077890;27;93180;-63
2022/07/19 09:27:00;;;;;;;2.10;1.90;;;;;;;;;;5078166;27;93467;-63
2022/07/19 09:29:27;;;;;;;1.90;1.80;;;;;;;;;;5082038;27;92407;-63
2022/07/19 09:32:17;;;;;;;1.80;1.70;;;;;;;;;;5078575;27;94774;-63
2022/07/19 09:34:49;;;;;;;3.03;2.00;;;;;;;;;;5064764;27;92501;-63
2022/07/19 09:37:15;;;;;;;2.00;1.88;;;;;;;;;;5078444;27;93665;-63
2022/07/19 09:39:45;;;;;;;1.95;1.80;;;;;;;;;;5077845;27;93473;-63
2022/07/19 09:42:12;;;;;;;2.08;1.85;;;;;;;;;;5077683;27;92497;-63
2022/07/19 09:44:39;;;;;;;1.70;1.60;;;;;;;;;;5076446;27;94868;-63
2022/07/19 09:47:05;;;;;;;2.70;1.90;;;;;;;;;;5077732;27;93632;-62
2022/07/19 09:49:38;;;;;;;3.42;1.77;;;;;;;;;;5078418;27;92325;-62
2022/07/19 09:52:04;;;;;;;1.88;1.77;;;;;;;;;;5080815;27;93475;-62
2022/07/19 09:54:31;;;;;;;2.75;1.75;;;;;;;;;;5077825;27;92404;-63
2022/07/19 09:57:00;;;;;;;1.92;1.75;;;;;;;;;;5077961;27;93501;-63
2022/07/19 09:59:26;;;;;;;2.03;1.92;;;;;;;;;;5077855;27;94487;-63
2022/07/19 10:01:54;;;;;;;1.95;1.80;;;;;;;;;;5078185;27;91777;-63
2022/07/19 10:04:22;;;;;;;1.92;1.83;;;;;;;;;;5078147;27;93396;-63
2022/07/19 10:06:50;;;;;;;1.90;1.80;;;;;;;;;;5078177;27;95318;-63
2022/07/19 10:09:17;;;;;;;1.88;1.73;;;;;;;;;;5076447;27;94829;-62
2022/07/19 10:11:49;;;;;;;1.92;1.83;;;;;;;;;;5077489;27;95605;-63
2022/07/19 10:14:16;;;;;;;1.90;1.80;;;;;;;;;;5080615;27;94815;-63
2022/07/19 10:16:45;;;;;;;2.58;1.95;;;;;;;;;;5078040;27;93279;-63
2022/07/19 10:19:14;;;;;;;1.90;1.80;;;;;;;;;;5076554;27;92473;-63
2022/07/19 10:21:40;;;;;;;2.20;2.00;;;;;;;;;;5077738;27;92546;-63
2022/07/19 10:24:07;;;;;;;1.63;1.52;;;;;;;;;;5077398;27;93183;-63
2022/07/19 10:26:34;;;;;;;4.35;2.25;;;;;;;;;;5078223;27;94031;-63
2022/07/19 10:29:16;;;;;;;2.15;1.75;;;;;;;;;;5077552;27;92465;-63
2022/07/19 10:32:01;;;;;;;1.83;1.73;;;;;;;;;;5059142;27;93215;-63
2022/07/19 10:34:27;;;;;;;1.60;1.50;;;;;;;;;;5075392;27;95912;-62
2022/07/19 10:36:55;;;;;;;2.38;1.95;;;;;;;;;;5079730;27;92837;-62
2022/07/19 10:39:22;;;;;;;3.03;1.55;;;;;;;;;;5076492;27;92495;-63
2022/07/19 10:42:07;;;;;;;2.40;1.98;;;;;;;;;;5077242;27;92541;-63
2022/07/19 10:44:33;;;;;;;1.85;1.75;;;;;;;;;;5077626;27;93430;-63
2022/07/19 10:46:59;;;;;;;1.75;1.65;;;;;;;;;;5077567;27;94480;-63
2022/07/19 10:49:46;;;;;;;2.15;1.80;;;;;;;;;;5077062;27;92494;-63
2022/07/19 10:52:28;;;;;;;1.80;1.70;;;;;;;;;;5077419;27;91652;-63
2022/07/19 10:55:13;;;;;;;2.60;2.00;;;;;;;;;;5076820;27;93599;-62
2022/07/19 10:57:39;;;;;;;1.70;1.60;;;;;;;;;;5077032;27;92428;-63
2022/07/19 11:00:25;;;;;;;1.65;1.55;;;;;;;;;;5077681;27;94904;-63
2022/07/19 11:02:52;;;;;;;1.73;1.63;;;;;;;;;;5077227;27;92716;-63
2022/07/19 11:05:26;;;;;;;1.85;1.70;;;;;;;;;;5076573;27;93376;-62
2022/07/19 11:07:53;;;;;;;2.05;1.85;;;;;;;;;;5076517;27;93516;-63
2022/07/19 11:10:23;;;;;;;1.85;1.75;;;;;;;;;;5076482;27;92489;-63
2022/07/19 11:12:50;;;;;;;1.98;1.77;;;;;;;;;;5076744;27;92381;-63
2022/07/19 11:15:16;;;;;;;2.08;1.88;;;;;;;;;;5076423;27;93423;-63
2022/07/19 11:17:52;;;;;;;1.80;1.70;;;;;;;;;;5077043;27;91696;-63
2022/07/19 11:20:21;;;;;;;2.10;1.88;;;;;;;;;;5079757;27;93431;-63
2022/07/19 11:22:48;;;;;;;2.22;1.83;;;;;;;;;;5076437;27;92490;-63
2022/07/19 11:25:15;;;;;;;2.25;1.60;;;;;;;;;;5074751;27;94853;-63
2022/07/19 11:27:42;;;;;;;2.30;2.00;;;;;;;;;;5076201;27;93459;-63
2022/07/19 11:30:09;;;;;;;1.88;1.77;;;;;;;;;;5075450;27;92424;-62
2022/07/19 11:32:35;;;;;;;2.20;1.67;;;;;;;;;;5076634;27;94194;-63
2022/07/19 11:35:05;;;;;;;3.53;1.88;;;;;;;;;;5076364;27;93911;-63
2022/07/19 11:37:33;;;;;;;2.08;1.90;;;;;;;;;;5075783;27;92554;-63
2022/07/19 11:39:59;;;;;;;1.73;1.63;;;;;;;;;;5058086;27;92458;-63
2022/07/19 11:42:45;;;;;;;1.85;1.67;;;;;;;;;;5079454;27;92761;-62
2022/07/19 11:45:40;;;;;;;1.77;1.58;;;;;;;;;;5076544;27;94947;-63
2022/07/19 11:48:06;;;;;;;1.80;1.70;;;;;;;;;;5075675;27;93578;-63
2022/07/19 11:50:34;;;;;;;1.80;1.70;;;;;;;;;;5074557;27;94880;-63
2022/07/19 11:53:00;;;;;;;1.80;1.70;;;;;;;;;;5076324;27;95582;-63
2022/07/19 11:55:38;;;;;;;1.70;1.60;;;;;;;;;;5075929;27;93515;-62
2022/07/19 11:58:08;;;;;;;1.80;1.70;;;;;;;;;;5075890;27;92792;-63
2022/07/19 12:00:35;;;;;;;3.72;1.90;;;;;;;;;;5075516;27;93367;-63
2022/07/19 12:03:04;;;;;;;1.40;1.40;;;;;;;;;;5075885;27;94442;-63
2022/07/19 12:05:32;;;;;;;1.83;1.73;;;;;;;;;;5078678;27;92438;-63
2022/07/19 12:08:00;;;;;;;1.95;1.70;;;;;;;;;;5076690;27;93934;-63
2022/07/19 12:10:35;;;;;;;2.38;1.92;;;;;;;;;;5075503;27;92446;-63
2022/07/19 12:13:01;;;;;;;2.28;1.83;;;;;;;;;;5075543;27;93399;-63
2022/07/19 12:15:49;;;;;;;1.75;1.65;;;;;;;;;;5074185;27;95851;-63
2022/07/19 12:18:17;;;;;;;2.50;1.90;;;;;;;;;;5075645;27;92390;-63
2022/07/19 12:20:44;;;;;;;2.75;1.70;;;;;;;;;;5075462;27;93424;-63
2022/07/19 12:23:16;;;;;;;1.90;1.80;;;;;;;;;;5075874;27;94649;-63
2022/07/19 12:25:42;;;;;;;1.75;1.58;;;;;;;;;;5075541;27;92469;-63
2022/07/19 12:28:09;;;;;;;1.83;1.73;;;;;;;;;;5060428;27;93090;-63
2022/07/19 12:30:35;;;;;;;2.05;1.80;;;;;;;;;;5075564;27;92362;-63
2022/07/19 12:33:24;;;;;;;2.25;2.00;;;;;;;;;;5076201;27;93101;-63
2022/07/19 12:35:50;;;;;;;2.05;1.95;;;;;;;;;;5056603;27;93469;-63
2022/07/19 12:38:26;;;;;;;2.67;1.50;;;;;;;;;;5075209;27;92415;-63
2022/07/19 12:41:03;;;;;;;2.10;2.00;;;;;;;;;;5074587;27;94730;-63
2022/07/19 12:43:29;;;;;;;1.60;1.50;;;;;;;;;;5081916;27;93841;-62
2022/07/19 12:45:58;;;;;;;2.00;1.80;;;;;;;;;;5082484;27;92467;-63
2022/07/19 12:48:25;;;;;;;2.23;1.70;;;;;;;;;;5082165;27;93320;-63
2022/07/19 12:50:52;;;;;;;1.80;1.70;;;;;;;;;;5084639;27;93848;-63
2022/07/19 12:53:20;;;;;;;2.17;1.70;;;;;;;;;;5082490;27;93256;-63
2022/07/19 12:55:46;;;;;;;1.55;1.45;;;;;;;;;;5081598;27;93501;-63
2022/07/19 12:59:38;;;;;;;1.70;1.60;;;;;;;;;;5082571;27;91745;-63
2022/07/19 13:01:01;;;;;;;3.22;1.95;;;;;;;;;;5081149;27;92577;-63
2022/07/19 13:03:27;;;;;;;1.80;1.70;;;;;;;;;;5081631;27;93368;-63
2022/07/19 13:05:54;;;;;;;1.88;1.73;;;;;;;;;;5080648;27;94723;-63
2022/07/19 13:08:20;;;;;;;1.73;1.50;;;;;;;;;;5081622;27;95524;-62
2022/07/19 13:10:46;;;;;;;2.47;1.85;;;;;;;;;;5063698;27;93756;-63
2022/07/19 13:13:13;;;;;;;2.95;1.60;;;;;;;;;;5085111;27;92781;-63
2022/07/19 13:15:39;;;;;;;1.70;1.60;;;;;;;;;;5081768;27;93665;-63
2022/07/19 13:18:05;;;;;;;1.60;1.50;;;;;;;;;;5081548;27;92527;-63
2022/07/19 13:20:32;;;;;;;2.35;1.60;;;;;;;;;;5081332;27;92906;-63
2022/07/19 13:22:58;;;;;;;2.35;1.80;;;;;;;;;;5081949;27;92832;-62
2022/07/19 13:25:24;;;;;;;1.95;1.50;;;;;;;;;;5081764;27;92474;-62
2022/07/19 13:28:11;;;;;;;1.60;1.50;;;;;;;;;;5081213;27;92731;-63
2022/07/19 13:30:37;;;;;;;1.45;1.35;;;;;;;;;;5079786;27;96235;-63
2022/07/19 13:33:04;;;;;;;1.60;1.50;;;;;;;;;;5084744;27;92470;-63
2022/07/19 13:35:33;;;;;;;1.90;1.60;;;;;;;;;;5080798;27;93446;-63
2022/07/19 13:38:00;;;;;;;1.70;1.60;;;;;;;;;;5082048;27;92405;-63
2022/07/19 13:40:26;;;;;;;2.05;1.65;;;;;;;;;;5081126;27;93293;-62
2022/07/19 13:42:53;;;;;;;3.47;1.90;;;;;;;;;;5080960;27;93529;-63
2022/07/19 13:45:20;;;;;;;3.35;1.83;;;;;;;;;;5081968;27;92447;-63
2022/07/19 13:47:46;;;;;;;3.35;1.60;;;;;;;;;;5063812;27;93291;-63
2022/07/19 13:50:12;;;;;;;1.40;1.30;;;;;;;;;;5081598;27;93272;-63
2022/07/19 13:52:38;;;;;;;3.92;1.63;;;;;;;;;;5080532;27;92446;-63
2022/07/19 13:55:05;;;;;;;1.98;1.70;;;;;;;;;;5078780;27;94718;-63
2022/07/19 13:57:31;;;;;;;1.85;1.67;;;;;;;;;;5078250;27;92463;-63
2022/07/19 13:59:58;;;;;;;1.73;1.63;;;;;;;;;;5078342;27;94697;-63
2022/07/19 14:02:24;;;;;;;1.52;1.42;;;;;;;;;;5077556;27;93692;-62
2022/07/19 14:04:51;;;;;;;1.70;1.60;;;;;;;;;;5078162;27;92400;-63
2022/07/19 14:07:17;;;;;;;1.60;1.50;;;;;;;;;;5077498;27;93111;-62
2022/07/19 14:09:43;;;;;;;2.13;1.33;;;;;;;;;;5077292;27;93487;-63
2022/07/19 14:12:10;;;;;;;1.92;1.80;;;;;;;;;;5077831;27;91749;-63
2022/07/19 14:14:36;;;;;;;1.60;1.50;;;;;;;;;;5077871;27;92373;-63
2022/07/19 14:17:03;;;;;;;1.90;1.60;;;;;;;;;;5063047;27;94438;-63
2022/07/19 14:19:29;;;;;;;1.95;1.60;;;;;;;;;;5076795;27;94750;-63
2022/07/19 14:21:58;;;;;;;1.50;1.40;;;;;;;;;;5076951;27;93256;-63
2022/07/19 14:24:25;;;;;;;3.35;1.50;;;;;;;;;;5077346;27;92417;-63
2022/07/19 14:26:51;;;;;;;2.05;1.70;;;;;;;;;;5077291;27;93243;-63
2022/07/19 14:29:17;;;;;;;2.72;1.60;;;;;;;;;;5077098;27;92626;-63
2022/07/19 14:31:44;;;;;;;1.50;1.40;;;;;;;;;;5077358;27;92402;-63
2022/07/19 14:34:10;;;;;;;1.83;1.50;;;;;;;;;;5077674;27;94585;-63
2022/07/19 14:36:57;;;;;;;1.70;1.60;;;;;;;;;;5077769;27;95235;-63
2022/07/19 14:39:23;;;;;;;1.60;1.50;;;;;;;;;;5080905;27;92352;-63
2022/07/19 14:41:49;;;;;;;2.60;1.67;;;;;;;;;;5076741;27;93278;-63
2022/07/19 14:44:16;;;;;;;1.90;1.70;;;;;;;;;;5075621;27;94797;-63
2022/07/19 14:46:42;;;;;;;1.60;1.50;;;;;;;;;;5077014;27;95919;-62
2022/07/19 14:49:09;;;;;;;1.67;1.52;;;;;;;;;;5077299;27;94452;-63